sensor_id;sensor_type;location;lat;lon;timestamp;P1;durP1;ratioP1;P2;durP2;ratioP2
24715;SDS011;12822;50.124;8.678;2024-01-07T00:02:19;8.30;;;5.50;;
24715;SDS011;12822;50.124;8.678;2024-01-07T00:04:45;7.28;;;5.20;;
24715;SDS011;12822;50.124;8.678;2024-01-07T00:07:11;8.48;;;5.50;;
24715;SDS011;12822;50.124;8.678;2024-01-07T00:09:37;8.98;;;5.80;;
24715;SDS011;12822;50.124;8.678;2024-01-07T00:12:03;8.50;;;5.65;;
24715;SDS011;12822;50.124;8.678;2024-01-07T00:14:29;8.88;;;5.03;;
24715;SDS011;12822;50.124;8.678;2024-01-07T00:16:55;7.95;;;5.10;;
24715;SDS011;12822;50.124;8.678;2024-01-07T00:19:21;6.68;;;4.72;;
24715;SDS011;12822;50.124;8.678;2024-01-07T00:21:47;7.22;;;4.88;;
24715;SDS011;12822;50.124;8.678;2024-01-07T00:24:13;8.48;;;5.10;;
24715;SDS011;12822;50.124;8.678;2024-01-07T00:26:39;6.50;;;4.57;;
24715;SDS011;12822;50.124;8.678;2024-01-07T00:29:04;7.32;;;5.20;;
24715;SDS011;12822;50.124;8.678;2024-01-07T00:31:30;9.55;;;5.78;;
24715;SDS011;12822;50.124;8.678;2024-01-07T00:33:56;8.23;;;5.13;;
24715;SDS011;12822;50.124;8.678;2024-01-07T00:36:22;7.45;;;5.05;;
24715;SDS011;12822;50.124;8.678;2024-01-07T00:38:48;7.18;;;5.15;;
24715;SDS011;12822;50.124;8.678;2024-01-07T00:41:14;7.68;;;4.93;;
24715;SDS011;12822;50.124;8.678;2024-01-07T00:43:40;7.53;;;4.88;;
24715;SDS011;12822;50.124;8.678;2024-01-07T00:46:06;6.85;;;4.45;;
24715;SDS011;12822;50.124;8.678;2024-01-07T00:48:32;8.70;;;5.40;;
24715;SDS011;12822;50.124;8.678;2024-01-07T00:50:58;8.80;;;5.15;;
24715;SDS011;12822;50.124;8.678;2024-01-07T00:53:24;6.63;;;4.15;;
24715;SDS011;12822;50.124;8.678;2024-01-07T00:55:50;6.55;;;4.47;;
24715;SDS011;12822;50.124;8.678;2024-01-07T00:58:16;7.55;;;4.55;;
24715;SDS011;12822;50.124;8.678;2024-01-07T01:00:42;9.00;;;4.97;;
24715;SDS011;12822;50.124;8.678;2024-01-07T01:03:08;8.15;;;5.13;;
24715;SDS011;12822;50.124;8.678;2024-01-07T01:05:34;6.28;;;4.07;;
24715;SDS011;12822;50.124;8.678;2024-01-07T01:08:01;8.38;;;4.35;;
24715;SDS011;12822;50.124;8.678;2024-01-07T01:10:27;6.40;;;4.30;;
24715;SDS011;12822;50.124;8.678;2024-01-07T01:12:53;8.18;;;3.92;;
24715;SDS011;12822;50.124;8.678;2024-01-07T01:15:19;6.43;;;4.05;;
24715;SDS011;12822;50.124;8.678;2024-01-07T01:17:45;6.22;;;4.40;;
24715;SDS011;12822;50.124;8.678;2024-01-07T01:20:11;6.85;;;4.25;;
24715;SDS011;12822;50.124;8.678;2024-01-07T01:22:37;6.22;;;4.38;;
24715;SDS011;12822;50.124;8.678;2024-01-07T01:25:03;6.05;;;4.28;;
24715;SDS011;12822;50.124;8.678;2024-01-07T01:27:29;7.15;;;4.55;;
24715;SDS011;12822;50.124;8.678;2024-01-07T01:29:55;6.13;;;3.70;;
24715;SDS011;12822;50.124;8.678;2024-01-07T01:32:21;6.30;;;4.10;;
24715;SDS011;12822;50.124;8.678;2024-01-07T01:34:47;5.82;;;3.78;;
24715;SDS011;12822;50.124;8.678;2024-01-07T01:37:13;5.90;;;4.05;;
24715;SDS011;12822;50.124;8.678;2024-01-07T01:39:42;4.47;;;3.72;;
24715;SDS011;12822;50.124;8.678;2024-01-07T01:42:08;6.50;;;4.20;;
24715;SDS011;12822;50.124;8.678;2024-01-07T01:44:34;8.23;;;4.07;;
24715;SDS011;12822;50.124;8.678;2024-01-07T01:47:00;6.60;;;4.00;;
24715;SDS011;12822;50.124;8.678;2024-01-07T01:49:27;5.80;;;3.85;;
24715;SDS011;12822;50.124;8.678;2024-01-07T01:51:53;5.53;;;3.83;;
24715;SDS011;12822;50.124;8.678;2024-01-07T01:54:19;8.48;;;4.30;;
24715;SDS011;12822;50.124;8.678;2024-01-07T01:56:46;5.53;;;3.40;;
24715;SDS011;12822;50.124;8.678;2024-01-07T01:59:13;6.97;;;4.28;;
24715;SDS011;12822;50.124;8.678;2024-01-07T02:01:39;6.93;;;4.28;;
24715;SDS011;12822;50.124;8.678;2024-01-07T02:04:06;6.78;;;4.03;;
24715;SDS011;12822;50.124;8.678;2024-01-07T02:06:32;4.53;;;3.35;;
24715;SDS011;12822;50.124;8.678;2024-01-07T02:08:58;6.25;;;3.72;;
24715;SDS011;12822;50.124;8.678;2024-01-07T02:11:24;6.32;;;3.60;;
24715;SDS011;12822;50.124;8.678;2024-01-07T02:13:50;5.35;;;4.00;;
24715;SDS011;12822;50.124;8.678;2024-01-07T02:16:16;4.28;;;3.17;;
24715;SDS011;12822;50.124;8.678;2024-01-07T02:18:43;6.68;;;3.58;;
24715;SDS011;12822;50.124;8.678;2024-01-07T02:21:10;4.93;;;3.40;;
24715;SDS011;12822;50.124;8.678;2024-01-07T02:23:36;4.60;;;3.10;;
24715;SDS011;12822;50.124;8.678;2024-01-07T02:26:02;6.00;;;3.72;;
24715;SDS011;12822;50.124;8.678;2024-01-07T02:28:29;6.63;;;3.78;;
24715;SDS011;12822;50.124;8.678;2024-01-07T02:30:55;5.55;;;3.88;;
24715;SDS011;12822;50.124;8.678;2024-01-07T02:33:21;6.72;;;3.42;;
24715;SDS011;12822;50.124;8.678;2024-01-07T02:35:47;4.57;;;3.40;;
24715;SDS011;12822;50.124;8.678;2024-01-07T02:38:13;5.90;;;3.58;;
24715;SDS011;12822;50.124;8.678;2024-01-07T02:40:39;5.93;;;3.55;;
24715;SDS011;12822;50.124;8.678;2024-01-07T02:43:05;6.50;;;3.50;;
24715;SDS011;12822;50.124;8.678;2024-01-07T02:45:31;5.57;;;3.78;;
24715;SDS011;12822;50.124;8.678;2024-01-07T02:47:57;7.15;;;3.40;;
24715;SDS011;12822;50.124;8.678;2024-01-07T02:50:23;6.35;;;4.00;;
24715;SDS011;12822;50.124;8.678;2024-01-07T02:52:49;5.10;;;3.65;;
24715;SDS011;12822;50.124;8.678;2024-01-07T02:55:15;6.32;;;3.92;;
24715;SDS011;12822;50.124;8.678;2024-01-07T02:57:41;6.63;;;4.32;;
24715;SDS011;12822;50.124;8.678;2024-01-07T03:00:07;7.13;;;4.13;;
24715;SDS011;12822;50.124;8.678;2024-01-07T03:02:33;7.78;;;4.57;;
24715;SDS011;12822;50.124;8.678;2024-01-07T03:04:59;7.15;;;4.57;;
24715;SDS011;12822;50.124;8.678;2024-01-07T03:07:25;8.32;;;4.93;;
24715;SDS011;12822;50.124;8.678;2024-01-07T03:09:51;8.23;;;4.90;;
24715;SDS011;12822;50.124;8.678;2024-01-07T03:12:17;7.78;;;4.82;;
24715;SDS011;12822;50.124;8.678;2024-01-07T03:14:43;6.95;;;4.57;;
24715;SDS011;12822;50.124;8.678;2024-01-07T03:17:10;7.72;;;5.00;;
24715;SDS011;12822;50.124;8.678;2024-01-07T03:19:37;8.77;;;5.22;;
24715;SDS011;12822;50.124;8.678;2024-01-07T03:22:03;10.43;;;5.88;;
24715;SDS011;12822;50.124;8.678;2024-01-07T03:24:32;9.45;;;5.40;;
24715;SDS011;12822;50.124;8.678;2024-01-07T03:26:58;10.65;;;5.68;;
24715;SDS011;12822;50.124;8.678;2024-01-07T03:29:24;11.70;;;5.78;;
24715;SDS011;12822;50.124;8.678;2024-01-07T03:31:50;7.40;;;4.88;;
24715;SDS011;12822;50.124;8.678;2024-01-07T03:34:17;12.38;;;6.35;;
24715;SDS011;12822;50.124;8.678;2024-01-07T03:36:43;8.70;;;5.35;;
24715;SDS011;12822;50.124;8.678;2024-01-07T03:39:09;10.63;;;5.53;;
24715;SDS011;12822;50.124;8.678;2024-01-07T03:41:35;9.65;;;5.93;;
24715;SDS011;12822;50.124;8.678;2024-01-07T03:44:01;10.82;;;6.03;;
24715;SDS011;12822;50.124;8.678;2024-01-07T03:46:27;10.30;;;5.63;;
24715;SDS011;12822;50.124;8.678;2024-01-07T03:48:53;9.80;;;5.68;;
24715;SDS011;12822;50.124;8.678;2024-01-07T03:51:19;9.70;;;5.45;;
24715;SDS011;12822;50.124;8.678;2024-01-07T03:53:45;8.25;;;4.90;;
24715;SDS011;12822;50.124;8.678;2024-01-07T03:56:11;10.10;;;5.38;;
24715;SDS011;12822;50.124;8.678;2024-01-07T03:58:37;8.23;;;5.32;;
24715;SDS011;12822;50.124;8.678;2024-01-07T04:01:03;7.43;;;4.68;;
24715;SDS011;12822;50.124;8.678;2024-01-07T04:03:29;9.23;;;5.13;;
24715;SDS011;12822;50.124;8.678;2024-01-07T04:05:55;10.52;;;4.93;;
24715;SDS011;12822;50.124;8.678;2024-01-07T04:08:21;8.18;;;4.75;;
24715;SDS011;12822;50.124;8.678;2024-01-07T04:10:48;8.35;;;5.07;;
24715;SDS011;12822;50.124;8.678;2024-01-07T04:13:14;8.63;;;5.10;;
24715;SDS011;12822;50.124;8.678;2024-01-07T04:15:40;8.43;;;5.35;;
24715;SDS011;12822;50.124;8.678;2024-01-07T04:18:06;8.98;;;5.75;;
24715;SDS011;12822;50.124;8.678;2024-01-07T04:20:32;9.77;;;5.72;;
24715;SDS011;12822;50.124;8.678;2024-01-07T04:22:58;8.30;;;5.40;;
24715;SDS011;12822;50.124;8.678;2024-01-07T04:25:24;11.82;;;6.40;;
24715;SDS011;12822;50.124;8.678;2024-01-07T04:27:50;10.60;;;6.68;;
24715;SDS011;12822;50.124;8.678;2024-01-07T04:30:16;12.10;;;6.93;;
24715;SDS011;12822;50.124;8.678;2024-01-07T04:32:42;11.50;;;6.97;;
24715;SDS011;12822;50.124;8.678;2024-01-07T04:35:08;13.18;;;7.43;;
24715;SDS011;12822;50.124;8.678;2024-01-07T04:37:35;13.75;;;8.57;;
24715;SDS011;12822;50.124;8.678;2024-01-07T04:40:01;15.43;;;8.73;;
24715;SDS011;12822;50.124;8.678;2024-01-07T04:42:27;17.13;;;8.57;;
24715;SDS011;12822;50.124;8.678;2024-01-07T04:44:53;13.77;;;9.02;;
24715;SDS011;12822;50.124;8.678;2024-01-07T04:47:29;16.95;;;9.43;;
24715;SDS011;12822;50.124;8.678;2024-01-07T04:49:56;15.75;;;9.68;;
24715;SDS011;12822;50.124;8.678;2024-01-07T04:52:22;17.55;;;10.23;;
24715;SDS011;12822;50.124;8.678;2024-01-07T04:54:50;17.40;;;10.48;;
24715;SDS011;12822;50.124;8.678;2024-01-07T04:57:16;15.93;;;9.52;;
24715;SDS011;12822;50.124;8.678;2024-01-07T04:59:42;19.65;;;11.40;;
24715;SDS011;12822;50.124;8.678;2024-01-07T05:02:08;19.40;;;11.85;;
24715;SDS011;12822;50.124;8.678;2024-01-07T05:04:35;20.48;;;11.52;;
24715;SDS011;12822;50.124;8.678;2024-01-07T05:07:01;17.83;;;11.95;;
24715;SDS011;12822;50.124;8.678;2024-01-07T05:09:27;20.50;;;12.02;;
24715;SDS011;12822;50.124;8.678;2024-01-07T05:11:53;19.58;;;11.65;;
24715;SDS011;12822;50.124;8.678;2024-01-07T05:14:19;18.77;;;11.43;;
24715;SDS011;12822;50.124;8.678;2024-01-07T05:16:45;22.55;;;11.45;;
24715;SDS011;12822;50.124;8.678;2024-01-07T05:19:11;20.83;;;12.40;;
24715;SDS011;12822;50.124;8.678;2024-01-07T05:21:37;17.08;;;10.82;;
24715;SDS011;12822;50.124;8.678;2024-01-07T05:24:03;21.55;;;11.65;;
24715;SDS011;12822;50.124;8.678;2024-01-07T05:26:29;21.52;;;11.50;;
24715;SDS011;12822;50.124;8.678;2024-01-07T05:28:55;20.63;;;10.65;;
24715;SDS011;12822;50.124;8.678;2024-01-07T05:31:21;19.88;;;10.85;;
24715;SDS011;12822;50.124;8.678;2024-01-07T05:33:47;15.75;;;9.52;;
24715;SDS011;12822;50.124;8.678;2024-01-07T05:36:14;15.60;;;9.13;;
24715;SDS011;12822;50.124;8.678;2024-01-07T05:38:43;15.88;;;9.40;;
24715;SDS011;12822;50.124;8.678;2024-01-07T05:41:09;15.10;;;9.52;;
24715;SDS011;12822;50.124;8.678;2024-01-07T05:43:35;12.70;;;8.15;;
24715;SDS011;12822;50.124;8.678;2024-01-07T05:46:02;12.57;;;8.25;;
24715;SDS011;12822;50.124;8.678;2024-01-07T05:48:28;14.50;;;8.50;;
24715;SDS011;12822;50.124;8.678;2024-01-07T05:50:54;12.60;;;8.07;;
24715;SDS011;12822;50.124;8.678;2024-01-07T05:53:20;14.25;;;8.60;;
24715;SDS011;12822;50.124;8.678;2024-01-07T05:55:46;12.15;;;7.70;;
24715;SDS011;12822;50.124;8.678;2024-01-07T05:58:12;15.52;;;9.10;;
24715;SDS011;12822;50.124;8.678;2024-01-07T06:00:38;13.65;;;8.18;;
24715;SDS011;12822;50.124;8.678;2024-01-07T06:03:04;13.75;;;8.25;;
24715;SDS011;12822;50.124;8.678;2024-01-07T06:05:31;15.77;;;9.45;;
24715;SDS011;12822;50.124;8.678;2024-01-07T06:07:57;15.02;;;8.90;;
24715;SDS011;12822;50.124;8.678;2024-01-07T06:10:23;16.08;;;9.50;;
24715;SDS011;12822;50.124;8.678;2024-01-07T06:12:49;16.40;;;8.98;;
24715;SDS011;12822;50.124;8.678;2024-01-07T06:15:15;15.52;;;8.77;;
24715;SDS011;12822;50.124;8.678;2024-01-07T06:17:42;15.32;;;9.00;;
24715;SDS011;12822;50.124;8.678;2024-01-07T06:20:08;15.43;;;9.18;;
24715;SDS011;12822;50.124;8.678;2024-01-07T06:22:34;15.13;;;8.82;;
24715;SDS011;12822;50.124;8.678;2024-01-07T06:25:00;16.40;;;8.65;;
24715;SDS011;12822;50.124;8.678;2024-01-07T06:27:26;18.77;;;8.68;;
24715;SDS011;12822;50.124;8.678;2024-01-07T06:29:52;16.92;;;8.65;;
24715;SDS011;12822;50.124;8.678;2024-01-07T06:32:18;13.43;;;8.98;;
24715;SDS011;12822;50.124;8.678;2024-01-07T06:34:44;16.90;;;9.55;;
24715;SDS011;12822;50.124;8.678;2024-01-07T06:37:11;15.73;;;8.90;;
24715;SDS011;12822;50.124;8.678;2024-01-07T06:39:37;18.67;;;10.20;;
24715;SDS011;12822;50.124;8.678;2024-01-07T06:42:03;18.60;;;9.98;;
24715;SDS011;12822;50.124;8.678;2024-01-07T06:44:30;19.13;;;9.77;;
24715;SDS011;12822;50.124;8.678;2024-01-07T06:46:56;15.82;;;9.90;;
24715;SDS011;12822;50.124;8.678;2024-01-07T06:49:22;16.52;;;10.20;;
24715;SDS011;12822;50.124;8.678;2024-01-07T06:51:48;17.38;;;10.20;;
24715;SDS011;12822;50.124;8.678;2024-01-07T06:54:14;18.35;;;10.27;;
24715;SDS011;12822;50.124;8.678;2024-01-07T06:56:40;17.05;;;10.38;;
24715;SDS011;12822;50.124;8.678;2024-01-07T06:59:06;18.17;;;10.65;;
24715;SDS011;12822;50.124;8.678;2024-01-07T07:01:32;22.23;;;11.23;;
24715;SDS011;12822;50.124;8.678;2024-01-07T07:03:58;23.10;;;11.82;;
24715;SDS011;12822;50.124;8.678;2024-01-07T07:06:25;22.35;;;11.23;;
24715;SDS011;12822;50.124;8.678;2024-01-07T07:08:51;22.77;;;12.40;;
24715;SDS011;12822;50.124;8.678;2024-01-07T07:11:17;22.83;;;12.05;;
24715;SDS011;12822;50.124;8.678;2024-01-07T07:13:44;21.08;;;11.95;;
24715;SDS011;12822;50.124;8.678;2024-01-07T07:16:10;23.00;;;12.90;;
24715;SDS011;12822;50.124;8.678;2024-01-07T07:18:37;21.63;;;12.35;;
24715;SDS011;12822;50.124;8.678;2024-01-07T07:21:03;22.83;;;12.15;;
24715;SDS011;12822;50.124;8.678;2024-01-07T07:23:29;20.25;;;11.68;;
24715;SDS011;12822;50.124;8.678;2024-01-07T07:25:55;21.17;;;12.00;;
24715;SDS011;12822;50.124;8.678;2024-01-07T07:28:21;21.95;;;12.35;;
24715;SDS011;12822;50.124;8.678;2024-01-07T07:30:47;20.67;;;11.98;;
24715;SDS011;12822;50.124;8.678;2024-01-07T07:33:13;23.20;;;11.57;;
24715;SDS011;12822;50.124;8.678;2024-01-07T07:35:40;20.05;;;11.07;;
24715;SDS011;12822;50.124;8.678;2024-01-07T07:38:07;20.83;;;12.02;;
24715;SDS011;12822;50.124;8.678;2024-01-07T07:40:33;22.30;;;12.10;;
24715;SDS011;12822;50.124;8.678;2024-01-07T07:42:59;20.40;;;11.65;;
24715;SDS011;12822;50.124;8.678;2024-01-07T07:45:25;19.83;;;11.25;;
24715;SDS011;12822;50.124;8.678;2024-01-07T07:47:51;20.33;;;11.35;;
24715;SDS011;12822;50.124;8.678;2024-01-07T07:50:17;18.98;;;10.68;;
24715;SDS011;12822;50.124;8.678;2024-01-07T07:52:46;19.42;;;11.18;;
24715;SDS011;12822;50.124;8.678;2024-01-07T07:55:12;19.58;;;11.63;;
24715;SDS011;12822;50.124;8.678;2024-01-07T07:57:38;20.45;;;11.25;;
24715;SDS011;12822;50.124;8.678;2024-01-07T08:00:05;22.20;;;12.20;;
24715;SDS011;12822;50.124;8.678;2024-01-07T08:02:31;21.27;;;12.55;;
24715;SDS011;12822;50.124;8.678;2024-01-07T08:04:57;25.58;;;13.18;;
24715;SDS011;12822;50.124;8.678;2024-01-07T08:07:23;26.23;;;12.65;;
24715;SDS011;12822;50.124;8.678;2024-01-07T08:09:49;25.17;;;13.18;;
24715;SDS011;12822;50.124;8.678;2024-01-07T08:12:15;24.42;;;13.45;;
24715;SDS011;12822;50.124;8.678;2024-01-07T08:14:41;24.55;;;13.80;;
24715;SDS011;12822;50.124;8.678;2024-01-07T08:17:07;26.88;;;14.13;;
24715;SDS011;12822;50.124;8.678;2024-01-07T08:19:33;28.40;;;14.32;;
24715;SDS011;12822;50.124;8.678;2024-01-07T08:21:59;25.10;;;12.35;;
24715;SDS011;12822;50.124;8.678;2024-01-07T08:24:25;26.63;;;14.10;;
24715;SDS011;12822;50.124;8.678;2024-01-07T08:26:51;26.98;;;13.80;;
24715;SDS011;12822;50.124;8.678;2024-01-07T08:29:17;26.65;;;13.82;;
24715;SDS011;12822;50.124;8.678;2024-01-07T08:31:43;26.50;;;14.15;;
24715;SDS011;12822;50.124;8.678;2024-01-07T08:34:09;28.17;;;14.30;;
24715;SDS011;12822;50.124;8.678;2024-01-07T08:36:35;25.40;;;13.77;;
24715;SDS011;12822;50.124;8.678;2024-01-07T08:39:01;25.50;;;12.55;;
24715;SDS011;12822;50.124;8.678;2024-01-07T08:41:27;23.98;;;13.30;;
24715;SDS011;12822;50.124;8.678;2024-01-07T08:43:53;23.95;;;13.07;;
24715;SDS011;12822;50.124;8.678;2024-01-07T08:46:22;27.38;;;13.50;;
24715;SDS011;12822;50.124;8.678;2024-01-07T08:48:48;24.80;;;13.32;;
24715;SDS011;12822;50.124;8.678;2024-01-07T08:51:14;24.30;;;12.43;;
24715;SDS011;12822;50.124;8.678;2024-01-07T08:53:40;24.88;;;13.20;;
24715;SDS011;12822;50.124;8.678;2024-01-07T08:56:06;25.85;;;13.32;;
24715;SDS011;12822;50.124;8.678;2024-01-07T08:58:34;22.70;;;13.07;;
24715;SDS011;12822;50.124;8.678;2024-01-07T09:01:02;22.08;;;12.18;;
24715;SDS011;12822;50.124;8.678;2024-01-07T09:03:28;25.02;;;13.18;;
24715;SDS011;12822;50.124;8.678;2024-01-07T09:05:54;24.60;;;13.25;;
24715;SDS011;12822;50.124;8.678;2024-01-07T09:08:20;22.88;;;12.18;;
24715;SDS011;12822;50.124;8.678;2024-01-07T09:10:46;23.27;;;12.50;;
24715;SDS011;12822;50.124;8.678;2024-01-07T09:13:12;23.35;;;12.85;;
24715;SDS011;12822;50.124;8.678;2024-01-07T09:15:38;21.02;;;12.38;;
24715;SDS011;12822;50.124;8.678;2024-01-07T09:18:04;20.77;;;11.93;;
24715;SDS011;12822;50.124;8.678;2024-01-07T09:20:30;23.20;;;11.82;;
24715;SDS011;12822;50.124;8.678;2024-01-07T09:22:56;22.80;;;12.70;;
24715;SDS011;12822;50.124;8.678;2024-01-07T09:25:22;22.23;;;12.10;;
24715;SDS011;12822;50.124;8.678;2024-01-07T09:27:48;23.52;;;11.38;;
24715;SDS011;12822;50.124;8.678;2024-01-07T09:30:14;20.02;;;11.02;;
24715;SDS011;12822;50.124;8.678;2024-01-07T09:32:42;22.67;;;11.93;;
24715;SDS011;12822;50.124;8.678;2024-01-07T09:35:08;17.20;;;10.63;;
24715;SDS011;12822;50.124;8.678;2024-01-07T09:37:34;15.20;;;9.80;;
24715;SDS011;12822;50.124;8.678;2024-01-07T09:40:01;17.40;;;10.65;;
24715;SDS011;12822;50.124;8.678;2024-01-07T09:42:29;15.63;;;9.55;;
24715;SDS011;12822;50.124;8.678;2024-01-07T09:44:55;13.10;;;8.40;;
24715;SDS011;12822;50.124;8.678;2024-01-07T09:47:21;13.90;;;9.27;;
24715;SDS011;12822;50.124;8.678;2024-01-07T09:49:49;13.70;;;8.45;;
24715;SDS011;12822;50.124;8.678;2024-01-07T09:52:15;15.63;;;8.25;;
24715;SDS011;12822;50.124;8.678;2024-01-07T09:54:42;11.63;;;7.35;;
24715;SDS011;12822;50.124;8.678;2024-01-07T09:57:10;10.95;;;6.60;;
24715;SDS011;12822;50.124;8.678;2024-01-07T09:59:36;11.27;;;6.90;;
24715;SDS011;12822;50.124;8.678;2024-01-07T10:02:04;11.10;;;7.45;;
24715;SDS011;12822;50.124;8.678;2024-01-07T10:04:30;10.73;;;7.28;;
24715;SDS011;12822;50.124;8.678;2024-01-07T10:06:56;11.55;;;7.43;;
24715;SDS011;12822;50.124;8.678;2024-01-07T10:09:22;10.50;;;6.35;;
24715;SDS011;12822;50.124;8.678;2024-01-07T10:11:50;11.05;;;7.45;;
24715;SDS011;12822;50.124;8.678;2024-01-07T10:14:16;12.68;;;7.85;;
24715;SDS011;12822;50.124;8.678;2024-01-07T10:16:42;11.70;;;7.05;;
24715;SDS011;12822;50.124;8.678;2024-01-07T10:19:08;11.65;;;7.40;;
24715;SDS011;12822;50.124;8.678;2024-01-07T10:21:34;11.35;;;7.25;;
24715;SDS011;12822;50.124;8.678;2024-01-07T10:24:07;10.90;;;6.85;;
24715;SDS011;12822;50.124;8.678;2024-01-07T10:26:34;11.13;;;7.03;;
24715;SDS011;12822;50.124;8.678;2024-01-07T10:29:00;13.38;;;7.90;;
24715;SDS011;12822;50.124;8.678;2024-01-07T10:31:26;14.90;;;8.13;;
24715;SDS011;12822;50.124;8.678;2024-01-07T10:33:52;19.00;;;7.25;;
24715;SDS011;12822;50.124;8.678;2024-01-07T10:36:18;11.40;;;7.18;;
24715;SDS011;12822;50.124;8.678;2024-01-07T10:38:46;13.73;;;7.32;;
24715;SDS011;12822;50.124;8.678;2024-01-07T10:41:13;12.95;;;8.00;;
24715;SDS011;12822;50.124;8.678;2024-01-07T10:43:40;12.68;;;7.60;;
24715;SDS011;12822;50.124;8.678;2024-01-07T10:46:07;10.30;;;7.10;;
24715;SDS011;12822;50.124;8.678;2024-01-07T10:48:35;13.55;;;8.27;;
24715;SDS011;12822;50.124;8.678;2024-01-07T10:51:03;11.85;;;7.40;;
24715;SDS011;12822;50.124;8.678;2024-01-07T10:53:33;13.15;;;8.30;;
24715;SDS011;12822;50.124;8.678;2024-01-07T10:56:00;13.77;;;8.02;;
24715;SDS011;12822;50.124;8.678;2024-01-07T10:58:29;13.52;;;7.72;;
24715;SDS011;12822;50.124;8.678;2024-01-07T11:00:56;14.45;;;8.55;;
24715;SDS011;12822;50.124;8.678;2024-01-07T11:03:27;14.73;;;8.00;;
24715;SDS011;12822;50.124;8.678;2024-01-07T11:08:25;13.25;;;7.30;;
24715;SDS011;12822;50.124;8.678;2024-01-07T11:10:57;15.15;;;8.38;;
24715;SDS011;12822;50.124;8.678;2024-01-07T11:13:33;14.45;;;7.75;;
24715;SDS011;12822;50.124;8.678;2024-01-07T11:16:01;13.57;;;8.43;;
24715;SDS011;12822;50.124;8.678;2024-01-07T11:18:27;15.35;;;8.13;;
24715;SDS011;12822;50.124;8.678;2024-01-07T11:20:58;14.85;;;8.02;;
24715;SDS011;12822;50.124;8.678;2024-01-07T11:23:26;13.20;;;8.05;;
24715;SDS011;12822;50.124;8.678;2024-01-07T11:26:01;13.57;;;8.60;;
24715;SDS011;12822;50.124;8.678;2024-01-07T11:28:47;13.98;;;8.10;;
24715;SDS011;12822;50.124;8.678;2024-01-07T11:31:13;14.38;;;7.63;;
24715;SDS011;12822;50.124;8.678;2024-01-07T11:33:47;13.73;;;8.52;;
24715;SDS011;12822;50.124;8.678;2024-01-07T11:36:14;16.02;;;8.55;;
24715;SDS011;12822;50.124;8.678;2024-01-07T11:41:09;17.00;;;8.63;;
24715;SDS011;12822;50.124;8.678;2024-01-07T11:43:37;13.23;;;8.00;;
24715;SDS011;12822;50.124;8.678;2024-01-07T11:46:03;12.68;;;7.68;;
24715;SDS011;12822;50.124;8.678;2024-01-07T11:48:29;14.27;;;8.45;;
24715;SDS011;12822;50.124;8.678;2024-01-07T11:50:55;15.93;;;9.30;;
24715;SDS011;12822;50.124;8.678;2024-01-07T11:53:21;15.20;;;8.77;;
24715;SDS011;12822;50.124;8.678;2024-01-07T11:55:47;14.77;;;8.60;;
24715;SDS011;12822;50.124;8.678;2024-01-07T11:58:13;15.52;;;8.82;;
24715;SDS011;12822;50.124;8.678;2024-01-07T12:00:39;14.50;;;9.13;;
24715;SDS011;12822;50.124;8.678;2024-01-07T12:03:05;12.77;;;8.38;;
24715;SDS011;12822;50.124;8.678;2024-01-07T12:05:31;13.80;;;8.43;;
24715;SDS011;12822;50.124;8.678;2024-01-07T12:07:57;14.90;;;8.05;;
24715;SDS011;12822;50.124;8.678;2024-01-07T12:10:23;16.20;;;8.18;;
24715;SDS011;12822;50.124;8.678;2024-01-07T12:12:49;13.57;;;8.52;;
24715;SDS011;12822;50.124;8.678;2024-01-07T12:15:16;16.10;;;8.80;;
24715;SDS011;12822;50.124;8.678;2024-01-07T12:17:42;16.05;;;8.23;;
24715;SDS011;12822;50.124;8.678;2024-01-07T12:20:14;15.18;;;8.52;;
24715;SDS011;12822;50.124;8.678;2024-01-07T12:22:41;12.38;;;7.22;;
24715;SDS011;12822;50.124;8.678;2024-01-07T12:25:07;16.63;;;7.97;;
24715;SDS011;12822;50.124;8.678;2024-01-07T12:27:34;15.73;;;8.13;;
24715;SDS011;12822;50.124;8.678;2024-01-07T12:30:04;15.32;;;8.13;;
24715;SDS011;12822;50.124;8.678;2024-01-07T12:32:30;14.65;;;7.72;;
24715;SDS011;12822;50.124;8.678;2024-01-07T12:34:57;16.17;;;8.20;;
24715;SDS011;12822;50.124;8.678;2024-01-07T12:37:25;17.38;;;8.52;;
24715;SDS011;12822;50.124;8.678;2024-01-07T12:39:52;16.45;;;8.43;;
24715;SDS011;12822;50.124;8.678;2024-01-07T12:42:18;14.77;;;8.52;;
24715;SDS011;12822;50.124;8.678;2024-01-07T12:44:45;14.15;;;8.82;;
24715;SDS011;12822;50.124;8.678;2024-01-07T12:47:11;15.60;;;8.05;;
24715;SDS011;12822;50.124;8.678;2024-01-07T12:49:37;15.60;;;7.95;;
24715;SDS011;12822;50.124;8.678;2024-01-07T12:52:03;16.25;;;8.20;;
24715;SDS011;12822;50.124;8.678;2024-01-07T12:54:29;15.10;;;8.30;;
24715;SDS011;12822;50.124;8.678;2024-01-07T12:56:55;14.07;;;7.65;;
24715;SDS011;12822;50.124;8.678;2024-01-07T12:59:21;15.30;;;7.95;;
24715;SDS011;12822;50.124;8.678;2024-01-07T13:01:47;15.75;;;7.78;;
24715;SDS011;12822;50.124;8.678;2024-01-07T13:04:13;15.32;;;7.28;;
24715;SDS011;12822;50.124;8.678;2024-01-07T13:06:39;14.15;;;6.85;;
24715;SDS011;12822;50.124;8.678;2024-01-07T13:09:05;14.98;;;7.50;;
24715;SDS011;12822;50.124;8.678;2024-01-07T13:11:32;13.10;;;6.82;;
24715;SDS011;12822;50.124;8.678;2024-01-07T13:13:58;18.05;;;7.15;;
24715;SDS011;12822;50.124;8.678;2024-01-07T13:16:25;13.10;;;7.93;;
24715;SDS011;12822;50.124;8.678;2024-01-07T13:18:52;11.95;;;6.20;;
24715;SDS011;12822;50.124;8.678;2024-01-07T13:21:18;9.38;;;5.75;;
24715;SDS011;12822;50.124;8.678;2024-01-07T13:23:45;11.18;;;6.15;;
24715;SDS011;12822;50.124;8.678;2024-01-07T13:26:12;12.77;;;6.95;;
24715;SDS011;12822;50.124;8.678;2024-01-07T13:28:38;12.13;;;6.38;;
24715;SDS011;12822;50.124;8.678;2024-01-07T13:31:04;11.45;;;6.85;;
24715;SDS011;12822;50.124;8.678;2024-01-07T13:33:31;11.88;;;6.72;;
24715;SDS011;12822;50.124;8.678;2024-01-07T13:35:57;12.70;;;6.60;;
24715;SDS011;12822;50.124;8.678;2024-01-07T13:38:24;13.07;;;6.93;;
24715;SDS011;12822;50.124;8.678;2024-01-07T13:40:50;10.88;;;5.90;;
24715;SDS011;12822;50.124;8.678;2024-01-07T13:43:16;12.18;;;6.47;;
24715;SDS011;12822;50.124;8.678;2024-01-07T13:45:42;12.50;;;6.53;;
24715;SDS011;12822;50.124;8.678;2024-01-07T13:48:08;12.07;;;6.22;;
24715;SDS011;12822;50.124;8.678;2024-01-07T13:50:34;11.25;;;6.10;;
24715;SDS011;12822;50.124;8.678;2024-01-07T13:53:01;15.18;;;6.65;;
24715;SDS011;12822;50.124;8.678;2024-01-07T13:55:27;10.63;;;6.22;;
24715;SDS011;12822;50.124;8.678;2024-01-07T13:57:53;10.07;;;6.20;;
24715;SDS011;12822;50.124;8.678;2024-01-07T14:00:19;14.13;;;5.90;;
24715;SDS011;12822;50.124;8.678;2024-01-07T14:02:45;12.30;;;6.20;;
24715;SDS011;12822;50.124;8.678;2024-01-07T14:05:12;10.50;;;5.63;;
24715;SDS011;12822;50.124;8.678;2024-01-07T14:07:38;11.48;;;5.95;;
24715;SDS011;12822;50.124;8.678;2024-01-07T14:10:04;11.70;;;5.30;;
24715;SDS011;12822;50.124;8.678;2024-01-07T14:12:31;10.65;;;5.50;;
24715;SDS011;12822;50.124;8.678;2024-01-07T14:14:57;12.63;;;6.00;;
24715;SDS011;12822;50.124;8.678;2024-01-07T14:17:24;10.68;;;5.65;;
24715;SDS011;12822;50.124;8.678;2024-01-07T14:19:50;9.43;;;5.65;;
24715;SDS011;12822;50.124;8.678;2024-01-07T14:22:18;11.38;;;6.72;;
24715;SDS011;12822;50.124;8.678;2024-01-07T14:24:45;11.95;;;6.20;;
24715;SDS011;12822;50.124;8.678;2024-01-07T14:27:11;9.00;;;5.75;;
24715;SDS011;12822;50.124;8.678;2024-01-07T14:29:37;10.55;;;5.43;;
24715;SDS011;12822;50.124;8.678;2024-01-07T14:32:04;7.63;;;4.55;;
24715;SDS011;12822;50.124;8.678;2024-01-07T14:34:30;8.77;;;4.90;;
24715;SDS011;12822;50.124;8.678;2024-01-07T14:36:56;8.48;;;4.70;;